CET,Max TemperatureF,Mean TemperatureF,Min TemperatureF,Max Dew PointF,MeanDew PointF,Min DewpointF,Max Humidity, Mean Humidity, Min Humidity, Max Sea Level PressureIn, Mean Sea Level PressureIn, Min Sea Level PressureIn, Max VisibilityMiles, Mean VisibilityMiles, Min VisibilityMiles, Max Wind SpeedMPH, Mean Wind SpeedMPH, Max Gust SpeedMPH,PrecipitationIn, CloudCover, Events, WindDirDegrees
2012-10-1,77,67,57,66,61,57,100,78,61,30.04,30.01,29.98,6,6,6,7,2,,0.00,3,,250
2012-10-2,78,68,59,66,63,59,100,79,57,30.09,30.04,30.01,6,6,4,13,3,,0.00,2,Fog,264
2012-10-3,78,69,60,64,60,57,100,73,51,30.12,30.09,30.06,6,5,2,8,2,,0.00,3,,253
2012-10-4,77,66,55,64,61,54,100,81,57,30.15,30.10,30.06,6,4,0,9,3,,0.00,2,Fog,252
2012-10-5,78,66,55,64,59,54,100,80,44,30.15,30.13,30.09,6,4,0,8,2,,0.00,1,Fog,287
2012-10-6,80,66,51,61,57,52,100,70,39,30.18,30.13,30.09,4,4,4,10,2,,0.00,,,237
2012-10-7,75,64,53,66,62,54,100,84,65,30.09,30.02,29.89,6,5,2,8,3,,0.00,3,,189
2012-10-8,78,68,59,68,64,59,100,82,57,29.98,29.96,29.92,6,6,5,7,3,,0.00,2,Fog,258
2012-10-9,75,66,57,66,63,57,100,87,69,29.92,29.86,29.80,6,5,2,12,4,,0.00,3,,217
2012-10-10,78,68,59,64,60,57,100,81,54,29.86,29.81,29.77,6,3,0,7,4,,0.00,2,Fog,341
2012-10-11,77,67,57,66,63,57,100,87,65,29.86,29.85,29.83,6,4,0,10,4,,0.00,3,Fog,224
2012-10-12,73,68,64,66,65,63,100,87,69,29.89,29.83,29.80,6,6,3,14,10,,0.00,4,Fog-Rain-Thunderstorm,195
2012-10-13,69,64,59,64,62,59,100,90,78,29.92,29.87,29.80,6,5,2,14,5,,0.00,4,Rain-Thunderstorm,166
2012-10-14,73,63,53,63,56,52,100,78,50,29.83,29.80,29.77,6,4,0,10,3,,0.00,2,Fog,212
2012-10-15,77,68,60,66,62,57,100,85,64,29.74,29.70,29.65,6,5,1,20,7,45,0.00,4,Rain-Thunderstorm,180
2012-10-16,69,62,53,59,53,46,100,70,46,30.09,29.94,29.80,6,6,4,8,3,,0.00,3,,203
2012-10-17,73,62,50,61,56,48,100,78,57,30.24,30.18,30.15,6,6,5,6,2,,0.00,2,Fog,326
2012-10-18,75,62,50,61,55,50,100,77,47,30.21,30.17,30.12,4,4,4,6,2,,0.00,,Fog,310
2012-10-19,77,62,48,61,54,45,94,75,47,30.18,30.14,30.09,5,3,2,6,1,,0.00,,,345
2012-10-20,82,66,51,63,57,52,100,72,39,30.15,30.11,30.06,,,,4,2,,0.00,,,-1
2012-10-21,82,66,51,63,58,52,100,73,45,30.06,30.04,29.98,5,5,5,5,1,,0.00,,Fog,250
2012-10-22,80,68,55,68,61,52,100,76,47,30.06,30.01,29.98,6,5,3,6,2,,0.00,1,Fog,350
2012-10-23,75,67,59,66,63,57,100,85,65,30.04,30.03,30.01,6,4,2,7,2,,0.00,2,,233
2012-10-24,77,67,57,63,60,57,100,83,50,30.01,29.98,29.92,6,4,0,9,2,,0.00,1,Fog,252
2012-10-25,75,62,50,63,57,46,100,77,50,29.95,29.92,29.89,6,5,2,6,2,,0.00,2,,285
2012-10-26,69,61,53,63,58,54,100,83,64,29.86,29.72,29.56,6,4,1,16,5,,0.00,5,Rain,152
2012-10-27,71,66,60,66,60,57,100,78,64,29.39,29.34,29.30,6,6,3,20,8,30,0.00,4,Rain,203
2012-10-28,60,55,50,48,41,34,82,61,41,29.62,29.58,29.50,6,6,5,16,10,31,0.00,4,Rain-Thunderstorm,219
2012-10-29,55,50,44,45,43,39,87,76,63,29.89,29.75,29.62,6,6,6,8,5,,0.00,3,Rain,360
2012-10-30,60,48,37,45,41,32,100,66,45,29.92,29.88,29.83,6,6,6,10,3,,0.00,1,,107
2012-10-31,62,56,50,63,54,45,100,89,67,29.71,29.47,29.30,6,4,1,25,11,40,0.00,5,Rain,131